Terminal Aerodrome Forecast
Issued by NWS

Home | Current Version | Previous Version | Text Only | Print | Product List | Glossary On
Versions: 1 2 3 4 5 6 7 8 9 10 11 12
000
FTUS46 KMTR 031720
TAFSJC
TAF
KSJC 031720Z 0318/0418 31005KT P6SM FEW012
     FM032000 31011KT P6SM FEW015
     FM040500 30005KT P6SM FEW015
     FM040900 VRB04KT P6SM BKN012
     FM041100 VRB03KT P6SM OVC010
     FM041630 VRB04KT P6SM FEW008 SCT010=

USA.gov is the U.S. government's official web portal to all federal, state and local government web resources and services.